Jacobabad Weather



Jacobabad's Current Weather

Temprature 45.862o clear sky

clear sky

Rain: 0 %

Min Temprature45.862o
Max Temprature45.862o
Humidity11
Wind Speed1.32 m/h
Sun Rise05:30:50
Sun Set19:26:55
Current Time: 26-Jun-2019 15:08:47
Lat/Lon: 28.29, 68.44




Jacobabad's Geo Location



Jacobabad's Weather Forecast

Time Overall Temp Min Temp Max Temp Humidity Wind Speed Rain
26-Jun-2019 (Wed)
17:00:00 clear sky 46.850 46.850 46.850 9 1.87 m/h 0 %
20:00:00 clear sky 43.250 43.247 43.250 14 6.93 m/h 0 %
23:00:00 clear sky 41.340 41.340 41.340 17 7.48 m/h 0 %
27-Jun-2019 (Thu)
02:00:00 few clouds 38.380 38.379 38.380 28 4.74 m/h 0 %
05:00:00 clear sky 35.765 35.765 35.765 36 4.42 m/h 0 %
08:00:00 clear sky 37.250 37.250 37.250 31 3.44 m/h 0 %
11:00:00 clear sky 42.374 42.374 42.374 19 2.05 m/h 0 %
14:00:00 clear sky 47.150 47.150 47.150 9 2.79 m/h 0 %
17:00:00 clear sky 48.180 48.180 48.180 7 5.2 m/h 0 %
20:00:00 clear sky 43.994 43.994 43.994 10 2.14 m/h 0 %
23:00:00 clear sky 40.235 40.235 40.235 13 7.51 m/h 0 %
28-Jun-2019 (Fri)
02:00:00 clear sky 36.528 36.528 36.528 32 7.67 m/h 0 %
05:00:00 clear sky 33.228 33.228 33.228 45 6.28 m/h 0 %
08:00:00 clear sky 33.669 33.669 33.669 45 3.7 m/h 0 %
11:00:00 clear sky 38.725 38.725 38.725 31 2.05 m/h 0 %
14:00:00 clear sky 44.331 44.331 44.331 16 0.81 m/h 0 %
17:00:00 clear sky 47.050 47.050 47.050 10 2.92 m/h 0 %
20:00:00 clear sky 44.350 44.350 44.350 12 2.8 m/h 0 %
23:00:00 clear sky 39.072 39.072 39.072 30 7.72 m/h 0 %
29-Jun-2019 (Sat)
02:00:00 clear sky 34.672 34.672 34.672 45 6.4 m/h 0 %
05:00:00 clear sky 32.129 32.129 32.129 55 4.15 m/h 0 %
08:00:00 clear sky 32.627 32.627 32.627 54 3.65 m/h 0 %
11:00:00 clear sky 38.550 38.550 38.550 35 1.49 m/h 0 %
14:00:00 clear sky 44.750 44.750 44.750 18 1.4 m/h 0 %
17:00:00 clear sky 47.991 47.991 47.991 10 3.82 m/h 0 %
20:00:00 clear sky 44.950 44.950 44.950 12 4.21 m/h 0 %
23:00:00 clear sky 40.250 40.250 40.250 26 9.69 m/h 0 %
30-Jun-2019 (Sun)
02:00:00 clear sky 35.416 35.416 35.416 44 8.44 m/h 0 %
05:00:00 clear sky 32.762 32.762 32.762 55 4.9 m/h 0 %
08:00:00 clear sky 33.782 33.782 33.782 52 3.43 m/h 0 %
11:00:00 clear sky 38.918 38.918 38.918 35 1.63 m/h 0 %
14:00:00 clear sky 44.708 44.708 44.708 19 1.58 m/h 0 %
17:00:00 clear sky 47.850 47.850 47.850 10 1.59 m/h 0 %
20:00:00 clear sky 44.850 44.850 44.850 15 5 m/h 0 %
23:00:00 clear sky 39.550 39.550 39.550 33 6.74 m/h 0 %
01-Jul-2019 (Mon)
02:00:00 clear sky 36.650 36.650 36.650 38 4.97 m/h 0 %
05:00:00 clear sky 32.435 32.435 32.435 54 5.58 m/h 0 %
08:00:00 clear sky 32.650 32.650 32.650 57 4.62 m/h 0 %
11:00:00 clear sky 38.450 38.450 38.450 35 2.09 m/h 0 %
14:00:00 clear sky 43.950 43.950 43.950 20 1.06 m/h 0 %

Famous Cities (60)